sensor_id;sensor_type;location;lat;lon;timestamp;temperature;humidity
23540;DHT22;11947;50.810;4.394;2022-09-09T00:09:21;14.80;99.90
23540;DHT22;11947;50.810;4.394;2022-09-09T00:14:39;14.80;99.90
23540;DHT22;11947;50.810;4.394;2022-09-09T00:17:02;14.80;99.90
23540;DHT22;11947;50.810;4.394;2022-09-09T00:21:59;14.80;99.90
23540;DHT22;11947;50.810;4.394;2022-09-09T00:24:28;15.00;99.90
23540;DHT22;11947;50.810;4.394;2022-09-09T00:26:57;14.90;99.90
23540;DHT22;11947;50.810;4.394;2022-09-09T00:29:28;14.80;99.90
23540;DHT22;11947;50.810;4.394;2022-09-09T00:32:04;15.00;99.90
23540;DHT22;11947;50.810;4.394;2022-09-09T00:34:30;14.90;99.90
23540;DHT22;11947;50.810;4.394;2022-09-09T00:36:57;14.80;99.90
23540;DHT22;11947;50.810;4.394;2022-09-09T00:44:43;14.80;99.90
23540;DHT22;11947;50.810;4.394;2022-09-09T00:52:27;15.10;99.90
23540;DHT22;11947;50.810;4.394;2022-09-09T00:57:28;15.20;99.90
23540;DHT22;11947;50.810;4.394;2022-09-09T01:04:53;15.30;99.90
23540;DHT22;11947;50.810;4.394;2022-09-09T01:07:19;15.20;99.90
23540;DHT22;11947;50.810;4.394;2022-09-09T01:12:15;15.10;99.90
23540;DHT22;11947;50.810;4.394;2022-09-09T01:14:48;15.10;99.90
23540;DHT22;11947;50.810;4.394;2022-09-09T01:27:33;15.00;99.90
23540;DHT22;11947;50.810;4.394;2022-09-09T01:30:00;14.90;99.90
23540;DHT22;11947;50.810;4.394;2022-09-09T01:32:42;14.90;99.90
23540;DHT22;11947;50.810;4.394;2022-09-09T01:35:09;15.00;99.90
23540;DHT22;11947;50.810;4.394;2022-09-09T01:37:35;14.90;99.90
23540;DHT22;11947;50.810;4.394;2022-09-09T01:40:01;15.10;99.90
23540;DHT22;11947;50.810;4.394;2022-09-09T01:42:26;14.90;99.90
23540;DHT22;11947;50.810;4.394;2022-09-09T01:44:52;14.90;99.90
23540;DHT22;11947;50.810;4.394;2022-09-09T01:47:19;15.10;99.90
23540;DHT22;11947;50.810;4.394;2022-09-09T01:49:45;15.00;99.90
23540;DHT22;11947;50.810;4.394;2022-09-09T01:52:10;15.10;99.90
23540;DHT22;11947;50.810;4.394;2022-09-09T01:54:36;15.20;99.90
23540;DHT22;11947;50.810;4.394;2022-09-09T02:02:17;15.10;99.90
23540;DHT22;11947;50.810;4.394;2022-09-09T02:04:42;14.90;99.90
23540;DHT22;11947;50.810;4.394;2022-09-09T02:07:51;14.90;99.90
23540;DHT22;11947;50.810;4.394;2022-09-09T02:09:59;14.80;99.90
23540;DHT22;11947;50.810;4.394;2022-09-09T02:12:26;14.80;99.90
23540;DHT22;11947;50.810;4.394;2022-09-09T02:14:57;14.80;99.90
23540;DHT22;11947;50.810;4.394;2022-09-09T02:17:28;14.80;99.90
23540;DHT22;11947;50.810;4.394;2022-09-09T02:20:00;14.80;99.90
23540;DHT22;11947;50.810;4.394;2022-09-09T02:22:27;14.90;99.90
23540;DHT22;11947;50.810;4.394;2022-09-09T02:24:56;14.80;99.90
23540;DHT22;11947;50.810;4.394;2022-09-09T02:27:24;14.90;99.90
23540;DHT22;11947;50.810;4.394;2022-09-09T02:29:51;15.10;99.90
23540;DHT22;11947;50.810;4.394;2022-09-09T02:32:18;15.10;99.90
23540;DHT22;11947;50.810;4.394;2022-09-09T02:34:47;15.10;99.90
23540;DHT22;11947;50.810;4.394;2022-09-09T02:37:17;14.90;99.90
23540;DHT22;11947;50.810;4.394;2022-09-09T02:39:52;14.90;99.90
23540;DHT22;11947;50.810;4.394;2022-09-09T02:42:22;15.00;99.90
23540;DHT22;11947;50.810;4.394;2022-09-09T02:45:05;15.00;99.90
23540;DHT22;11947;50.810;4.394;2022-09-09T02:53:17;14.90;99.90
23540;DHT22;11947;50.810;4.394;2022-09-09T02:58:12;15.00;99.90
23540;DHT22;11947;50.810;4.394;2022-09-09T03:00:42;15.00;99.90
23540;DHT22;11947;50.810;4.394;2022-09-09T03:03:08;15.10;99.90
23540;DHT22;11947;50.810;4.394;2022-09-09T03:05:34;15.00;99.90
23540;DHT22;11947;50.810;4.394;2022-09-09T03:08:01;15.10;99.90
23540;DHT22;11947;50.810;4.394;2022-09-09T03:10:27;15.00;99.90
23540;DHT22;11947;50.810;4.394;2022-09-09T03:12:52;15.10;99.90
23540;DHT22;11947;50.810;4.394;2022-09-09T03:15:18;15.00;99.90
23540;DHT22;11947;50.810;4.394;2022-09-09T03:17:43;15.10;99.90
23540;DHT22;11947;50.810;4.394;2022-09-09T03:20:09;14.90;99.90
23540;DHT22;11947;50.810;4.394;2022-09-09T03:22:34;14.90;99.90
23540;DHT22;11947;50.810;4.394;2022-09-09T03:25:00;14.90;99.90
23540;DHT22;11947;50.810;4.394;2022-09-09T03:27:28;15.10;99.90
23540;DHT22;11947;50.810;4.394;2022-09-09T03:29:53;14.90;99.90
23540;DHT22;11947;50.810;4.394;2022-09-09T03:32:25;15.10;99.90
23540;DHT22;11947;50.810;4.394;2022-09-09T03:34:55;14.90;99.90
23540;DHT22;11947;50.810;4.394;2022-09-09T03:37:25;14.90;99.90
23540;DHT22;11947;50.810;4.394;2022-09-09T03:40:15;14.90;99.90
23540;DHT22;11947;50.810;4.394;2022-09-09T03:43:11;14.90;99.90
23540;DHT22;11947;50.810;4.394;2022-09-09T03:45:45;15.00;99.90
23540;DHT22;11947;50.810;4.394;2022-09-09T03:48:18;14.80;99.90
23540;DHT22;11947;50.810;4.394;2022-09-09T03:50:47;15.00;99.90
23540;DHT22;11947;50.810;4.394;2022-09-09T03:53:14;14.80;99.90
23540;DHT22;11947;50.810;4.394;2022-09-09T03:55:43;14.90;99.90
23540;DHT22;11947;50.810;4.394;2022-09-09T03:58:08;15.00;99.90
23540;DHT22;11947;50.810;4.394;2022-09-09T04:00:34;14.90;99.90
23540;DHT22;11947;50.810;4.394;2022-09-09T04:02:59;14.90;99.90
23540;DHT22;11947;50.810;4.394;2022-09-09T04:05:42;15.00;99.90
23540;DHT22;11947;50.810;4.394;2022-09-09T04:08:16;15.00;99.90
23540;DHT22;11947;50.810;4.394;2022-09-09T04:10:49;15.00;99.90
23540;DHT22;11947;50.810;4.394;2022-09-09T04:13:16;15.10;99.90
23540;DHT22;11947;50.810;4.394;2022-09-09T04:15:51;15.20;99.90
23540;DHT22;11947;50.810;4.394;2022-09-09T04:18:26;15.10;99.90
23540;DHT22;11947;50.810;4.394;2022-09-09T04:20:58;15.10;99.90
23540;DHT22;11947;50.810;4.394;2022-09-09T04:23:43;15.00;99.90
23540;DHT22;11947;50.810;4.394;2022-09-09T04:26:31;15.00;99.90
23540;DHT22;11947;50.810;4.394;2022-09-09T04:29:18;15.00;99.90
23540;DHT22;11947;50.810;4.394;2022-09-09T04:31:43;15.00;99.90
23540;DHT22;11947;50.810;4.394;2022-09-09T04:34:14;14.90;99.90
23540;DHT22;11947;50.810;4.394;2022-09-09T04:36:43;14.90;99.90
23540;DHT22;11947;50.810;4.394;2022-09-09T04:39:14;14.90;99.90
23540;DHT22;11947;50.810;4.394;2022-09-09T04:42:09;14.90;99.90
23540;DHT22;11947;50.810;4.394;2022-09-09T04:44:46;15.10;99.90
23540;DHT22;11947;50.810;4.394;2022-09-09T04:47:26;14.90;99.90
23540;DHT22;11947;50.810;4.394;2022-09-09T04:49:54;14.90;99.90
23540;DHT22;11947;50.810;4.394;2022-09-09T04:52:43;14.90;99.90
23540;DHT22;11947;50.810;4.394;2022-09-09T04:55:43;14.90;99.90
23540;DHT22;11947;50.810;4.394;2022-09-09T04:58:39;15.10;99.90
23540;DHT22;11947;50.810;4.394;2022-09-09T05:01:15;15.00;99.90
23540;DHT22;11947;50.810;4.394;2022-09-09T05:03:44;14.90;99.90
23540;DHT22;11947;50.810;4.394;2022-09-09T05:06:15;15.00;99.90
23540;DHT22;11947;50.810;4.394;2022-09-09T05:08:43;14.80;99.90
23540;DHT22;11947;50.810;4.394;2022-09-09T05:13:48;14.70;99.90
23540;DHT22;11947;50.810;4.394;2022-09-09T05:16:17;14.80;99.90
23540;DHT22;11947;50.810;4.394;2022-09-09T05:18:42;14.90;99.90
23540;DHT22;11947;50.810;4.394;2022-09-09T05:21:08;15.00;99.90
23540;DHT22;11947;50.810;4.394;2022-09-09T05:23:36;14.90;99.90
23540;DHT22;11947;50.810;4.394;2022-09-09T05:26:04;15.00;99.90
23540;DHT22;11947;50.810;4.394;2022-09-09T05:28:29;15.10;99.90
23540;DHT22;11947;50.810;4.394;2022-09-09T05:30:59;15.10;99.90
23540;DHT22;11947;50.810;4.394;2022-09-09T05:33:26;15.20;99.90
23540;DHT22;11947;50.810;4.394;2022-09-09T05:36:20;15.30;99.90
23540;DHT22;11947;50.810;4.394;2022-09-09T05:38:47;15.30;99.90
23540;DHT22;11947;50.810;4.394;2022-09-09T05:41:13;15.20;99.90
23540;DHT22;11947;50.810;4.394;2022-09-09T05:43:42;15.20;99.90
23540;DHT22;11947;50.810;4.394;2022-09-09T05:46:13;15.20;99.90
23540;DHT22;11947;50.810;4.394;2022-09-09T05:48:55;15.20;99.90
23540;DHT22;11947;50.810;4.394;2022-09-09T05:51:22;15.30;99.90
23540;DHT22;11947;50.810;4.394;2022-09-09T05:53:49;15.40;99.90
23540;DHT22;11947;50.810;4.394;2022-09-09T05:56:18;15.20;99.90
23540;DHT22;11947;50.810;4.394;2022-09-09T05:58:44;15.20;99.90
23540;DHT22;11947;50.810;4.394;2022-09-09T06:01:17;15.20;99.90
23540;DHT22;11947;50.810;4.394;2022-09-09T06:03:43;15.20;99.90
23540;DHT22;11947;50.810;4.394;2022-09-09T06:06:10;15.20;99.90
23540;DHT22;11947;50.810;4.394;2022-09-09T06:08:38;15.30;99.90
23540;DHT22;11947;50.810;4.394;2022-09-09T06:11:04;15.30;99.90
23540;DHT22;11947;50.810;4.394;2022-09-09T06:13:31;15.40;99.90
23540;DHT22;11947;50.810;4.394;2022-09-09T06:15:57;15.40;99.90
23540;DHT22;11947;50.810;4.394;2022-09-09T06:18:23;15.60;99.90
23540;DHT22;11947;50.810;4.394;2022-09-09T06:21:32;15.40;99.90
23540;DHT22;11947;50.810;4.394;2022-09-09T06:23:39;15.60;99.90
23540;DHT22;11947;50.810;4.394;2022-09-09T06:26:16;15.70;99.90
23540;DHT22;11947;50.810;4.394;2022-09-09T06:28:43;15.50;99.90
23540;DHT22;11947;50.810;4.394;2022-09-09T06:31:10;15.70;99.90
23540;DHT22;11947;50.810;4.394;2022-09-09T06:33:43;15.80;99.90
23540;DHT22;11947;50.810;4.394;2022-09-09T06:36:27;16.00;99.90
23540;DHT22;11947;50.810;4.394;2022-09-09T06:39:11;16.00;99.90
23540;DHT22;11947;50.810;4.394;2022-09-09T06:41:37;16.10;99.90
23540;DHT22;11947;50.810;4.394;2022-09-09T06:44:24;16.00;99.90
23540;DHT22;11947;50.810;4.394;2022-09-09T06:46:52;16.00;99.90
23540;DHT22;11947;50.810;4.394;2022-09-09T06:49:19;16.20;99.90
23540;DHT22;11947;50.810;4.394;2022-09-09T06:51:44;16.10;99.90
23540;DHT22;11947;50.810;4.394;2022-09-09T06:54:10;16.10;99.90
23540;DHT22;11947;50.810;4.394;2022-09-09T06:56:51;16.30;99.90
23540;DHT22;11947;50.810;4.394;2022-09-09T06:59:22;16.30;99.90
23540;DHT22;11947;50.810;4.394;2022-09-09T07:01:56;16.40;99.90
23540;DHT22;11947;50.810;4.394;2022-09-09T07:04:23;16.40;99.90
23540;DHT22;11947;50.810;4.394;2022-09-09T07:06:54;16.40;99.90
23540;DHT22;11947;50.810;4.394;2022-09-09T07:09:55;16.50;99.90
23540;DHT22;11947;50.810;4.394;2022-09-09T07:12:21;16.70;99.90
23540;DHT22;11947;50.810;4.394;2022-09-09T07:14:47;16.80;99.90
23540;DHT22;11947;50.810;4.394;2022-09-09T07:17:49;16.80;99.90
23540;DHT22;11947;50.810;4.394;2022-09-09T07:20:21;16.90;99.90
23540;DHT22;11947;50.810;4.394;2022-09-09T07:22:47;16.70;99.90
23540;DHT22;11947;50.810;4.394;2022-09-09T07:25:14;16.60;99.90
23540;DHT22;11947;50.810;4.394;2022-09-09T07:27:42;16.60;99.90
23540;DHT22;11947;50.810;4.394;2022-09-09T07:30:07;16.70;99.90
23540;DHT22;11947;50.810;4.394;2022-09-09T07:32:33;16.60;99.90
23540;DHT22;11947;50.810;4.394;2022-09-09T07:34:59;16.70;99.90
23540;DHT22;11947;50.810;4.394;2022-09-09T07:37:25;16.80;99.90
23540;DHT22;11947;50.810;4.394;2022-09-09T07:39:54;16.80;99.90
23540;DHT22;11947;50.810;4.394;2022-09-09T07:42:19;16.70;99.90
23540;DHT22;11947;50.810;4.394;2022-09-09T07:44:45;16.50;99.90
23540;DHT22;11947;50.810;4.394;2022-09-09T07:47:12;16.20;99.90
23540;DHT22;11947;50.810;4.394;2022-09-09T07:49:37;16.00;99.90
23540;DHT22;11947;50.810;4.394;2022-09-09T07:52:03;15.90;99.90
23540;DHT22;11947;50.810;4.394;2022-09-09T07:54:30;15.70;99.90
23540;DHT22;11947;50.810;4.394;2022-09-09T07:56:58;15.80;99.90
23540;DHT22;11947;50.810;4.394;2022-09-09T07:59:24;15.70;99.90
23540;DHT22;11947;50.810;4.394;2022-09-09T08:01:51;15.80;99.90
23540;DHT22;11947;50.810;4.394;2022-09-09T08:04:20;15.90;99.90
23540;DHT22;11947;50.810;4.394;2022-09-09T08:06:55;16.00;99.90
23540;DHT22;11947;50.810;4.394;2022-09-09T08:09:21;16.20;99.90
23540;DHT22;11947;50.810;4.394;2022-09-09T08:11:46;16.20;99.90
23540;DHT22;11947;50.810;4.394;2022-09-09T08:14:12;16.30;99.90
23540;DHT22;11947;50.810;4.394;2022-09-09T08:16:40;16.60;99.90
23540;DHT22;11947;50.810;4.394;2022-09-09T08:19:06;16.80;99.90
23540;DHT22;11947;50.810;4.394;2022-09-09T08:21:32;17.20;99.90
23540;DHT22;11947;50.810;4.394;2022-09-09T08:23:59;17.20;99.90
23540;DHT22;11947;50.810;4.394;2022-09-09T08:26:29;17.30;99.90
23540;DHT22;11947;50.810;4.394;2022-09-09T08:28:55;17.30;99.90
23540;DHT22;11947;50.810;4.394;2022-09-09T08:31:22;17.50;99.90
23540;DHT22;11947;50.810;4.394;2022-09-09T08:33:48;17.60;99.90
23540;DHT22;11947;50.810;4.394;2022-09-09T08:36:15;17.50;99.90
23540;DHT22;11947;50.810;4.394;2022-09-09T08:38:41;17.40;99.90
23540;DHT22;11947;50.810;4.394;2022-09-09T08:43:43;17.10;99.90
23540;DHT22;11947;50.810;4.394;2022-09-09T08:46:16;17.00;99.90
23540;DHT22;11947;50.810;4.394;2022-09-09T08:48:49;16.90;99.90
23540;DHT22;11947;50.810;4.394;2022-09-09T08:51:18;16.80;99.90
23540;DHT22;11947;50.810;4.394;2022-09-09T08:53:45;16.70;99.90
23540;DHT22;11947;50.810;4.394;2022-09-09T08:56:14;16.70;99.90
23540;DHT22;11947;50.810;4.394;2022-09-09T08:58:44;16.80;99.90
23540;DHT22;11947;50.810;4.394;2022-09-09T09:11:45;16.60;99.90
23540;DHT22;11947;50.810;4.394;2022-09-09T09:19:14;16.50;99.90
23540;DHT22;11947;50.810;4.394;2022-09-09T09:21:43;16.60;99.90
23540;DHT22;11947;50.810;4.394;2022-09-09T09:26:59;16.50;99.90
23540;DHT22;11947;50.810;4.394;2022-09-09T09:29:29;16.60;99.90
23540;DHT22;11947;50.810;4.394;2022-09-09T09:31:56;16.50;99.90
23540;DHT22;11947;50.810;4.394;2022-09-09T09:34:24;16.50;99.90
23540;DHT22;11947;50.810;4.394;2022-09-09T09:36:56;16.50;99.90
23540;DHT22;11947;50.810;4.394;2022-09-09T09:39:26;16.50;99.90
23540;DHT22;11947;50.810;4.394;2022-09-09T09:41:52;16.70;99.90
23540;DHT22;11947;50.810;4.394;2022-09-09T09:44:25;16.70;99.90
23540;DHT22;11947;50.810;4.394;2022-09-09T09:46:51;16.70;99.90
23540;DHT22;11947;50.810;4.394;2022-09-09T09:49:17;16.60;99.90
23540;DHT22;11947;50.810;4.394;2022-09-09T09:51:42;16.50;99.90
23540;DHT22;11947;50.810;4.394;2022-09-09T09:56:34;16.40;99.90
23540;DHT22;11947;50.810;4.394;2022-09-09T09:59:00;16.20;99.90
23540;DHT22;11947;50.810;4.394;2022-09-09T10:01:27;16.50;99.90
23540;DHT22;11947;50.810;4.394;2022-09-09T10:03:54;16.40;99.90
23540;DHT22;11947;50.810;4.394;2022-09-09T10:06:30;16.50;99.90
23540;DHT22;11947;50.810;4.394;2022-09-09T10:08:56;16.60;99.90
23540;DHT22;11947;50.810;4.394;2022-09-09T10:11:30;16.60;99.90
23540;DHT22;11947;50.810;4.394;2022-09-09T10:14:16;16.60;99.90
23540;DHT22;11947;50.810;4.394;2022-09-09T10:17:01;16.70;99.90
23540;DHT22;11947;50.810;4.394;2022-09-09T10:19:35;16.60;99.90
23540;DHT22;11947;50.810;4.394;2022-09-09T10:37:27;16.90;99.90
23540;DHT22;11947;50.810;4.394;2022-09-09T10:40:14;17.10;99.90
23540;DHT22;11947;50.810;4.394;2022-09-09T10:43:03;17.10;99.90
23540;DHT22;11947;50.810;4.394;2022-09-09T10:45:34;17.10;99.90
23540;DHT22;11947;50.810;4.394;2022-09-09T10:55:56;17.50;99.90
23540;DHT22;11947;50.810;4.394;2022-09-09T10:58:27;17.80;99.90
23540;DHT22;11947;50.810;4.394;2022-09-09T11:00:56;18.10;99.90
23540;DHT22;11947;50.810;4.394;2022-09-09T11:03:27;18.40;99.90
23540;DHT22;11947;50.810;4.394;2022-09-09T11:06:01;18.60;99.90
23540;DHT22;11947;50.810;4.394;2022-09-09T11:08:29;18.80;99.90
23540;DHT22;11947;50.810;4.394;2022-09-09T11:18:49;19.10;99.90
23540;DHT22;11947;50.810;4.394;2022-09-09T11:21:37;19.60;99.90
23540;DHT22;11947;50.810;4.394;2022-09-09T11:24:22;20.00;99.90
23540;DHT22;11947;50.810;4.394;2022-09-09T11:26:50;19.90;99.90
23540;DHT22;11947;50.810;4.394;2022-09-09T11:32:00;19.60;99.90
23540;DHT22;11947;50.810;4.394;2022-09-09T11:39:28;19.40;99.90
23540;DHT22;11947;50.810;4.394;2022-09-09T11:44:33;19.10;99.90
23540;DHT22;11947;50.810;4.394;2022-09-09T11:46:59;19.10;99.90
23540;DHT22;11947;50.810;4.394;2022-09-09T11:49:26;19.10;99.90
23540;DHT22;11947;50.810;4.394;2022-09-09T11:51:52;19.20;99.90
23540;DHT22;11947;50.810;4.394;2022-09-09T11:54:33;19.40;99.90
23540;DHT22;11947;50.810;4.394;2022-09-09T11:57:23;19.40;99.90
23540;DHT22;11947;50.810;4.394;2022-09-09T11:59:50;19.70;99.90
23540;DHT22;11947;50.810;4.394;2022-09-09T12:02:22;19.90;99.90
23540;DHT22;11947;50.810;4.394;2022-09-09T12:04:50;19.70;99.90
23540;DHT22;11947;50.810;4.394;2022-09-09T12:07:28;19.60;99.90
23540;DHT22;11947;50.810;4.394;2022-09-09T12:10:05;19.50;99.90
23540;DHT22;11947;50.810;4.394;2022-09-09T12:12:44;19.60;99.90
23540;DHT22;11947;50.810;4.394;2022-09-09T12:17:43;19.30;99.90
23540;DHT22;11947;50.810;4.394;2022-09-09T12:20:16;19.40;99.90
23540;DHT22;11947;50.810;4.394;2022-09-09T12:23:04;19.40;99.90
23540;DHT22;11947;50.810;4.394;2022-09-09T12:28:17;19.20;99.90
23540;DHT22;11947;50.810;4.394;2022-09-09T12:30:48;19.20;99.90
23540;DHT22;11947;50.810;4.394;2022-09-09T12:33:17;19.30;99.90
23540;DHT22;11947;50.810;4.394;2022-09-09T12:35:43;19.50;99.90
23540;DHT22;11947;50.810;4.394;2022-09-09T12:38:14;19.80;99.90
23540;DHT22;11947;50.810;4.394;2022-09-09T12:40:40;20.40;99.90
23540;DHT22;11947;50.810;4.394;2022-09-09T12:43:20;20.80;99.90
23540;DHT22;11947;50.810;4.394;2022-09-09T12:45:46;21.00;99.90
23540;DHT22;11947;50.810;4.394;2022-09-09T12:48:15;21.10;99.90
23540;DHT22;11947;50.810;4.394;2022-09-09T12:50:48;21.10;99.90
23540;DHT22;11947;50.810;4.394;2022-09-09T12:53:27;21.30;99.90
23540;DHT22;11947;50.810;4.394;2022-09-09T12:56:03;21.20;99.90
23540;DHT22;11947;50.810;4.394;2022-09-09T12:58:29;21.10;99.90
23540;DHT22;11947;50.810;4.394;2022-09-09T13:01:00;20.70;99.90
23540;DHT22;11947;50.810;4.394;2022-09-09T13:03:27;20.70;99.90
23540;DHT22;11947;50.810;4.394;2022-09-09T13:05:53;20.80;99.90
23540;DHT22;11947;50.810;4.394;2022-09-09T13:08:24;20.90;99.90
23540;DHT22;11947;50.810;4.394;2022-09-09T13:13:28;20.90;99.90
23540;DHT22;11947;50.810;4.394;2022-09-09T13:16:01;21.50;99.90
23540;DHT22;11947;50.810;4.394;2022-09-09T13:18:32;21.90;99.90
23540;DHT22;11947;50.810;4.394;2022-09-09T13:20:58;21.80;99.90
23540;DHT22;11947;50.810;4.394;2022-09-09T13:23:26;21.80;99.90
23540;DHT22;11947;50.810;4.394;2022-09-09T13:25:53;22.00;99.90
23540;DHT22;11947;50.810;4.394;2022-09-09T13:28:23;22.60;99.90
23540;DHT22;11947;50.810;4.394;2022-09-09T13:31:19;23.20;99.90
23540;DHT22;11947;50.810;4.394;2022-09-09T13:33:38;23.80;99.90
23540;DHT22;11947;50.810;4.394;2022-09-09T13:36:09;24.60;99.90
23540;DHT22;11947;50.810;4.394;2022-09-09T13:38:36;24.60;99.90
23540;DHT22;11947;50.810;4.394;2022-09-09T13:43:42;24.70;99.90
23540;DHT22;11947;50.810;4.394;2022-09-09T13:49:00;24.50;99.90
23540;DHT22;11947;50.810;4.394;2022-09-09T13:51:28;23.80;99.90
23540;DHT22;11947;50.810;4.394;2022-09-09T13:53:54;24.00;99.90
23540;DHT22;11947;50.810;4.394;2022-09-09T13:56:20;24.10;99.90
23540;DHT22;11947;50.810;4.394;2022-09-09T13:58:45;24.00;99.90
23540;DHT22;11947;50.810;4.394;2022-09-09T14:01:12;23.60;99.90
23540;DHT22;11947;50.810;4.394;2022-09-09T14:03:38;23.20;99.90
23540;DHT22;11947;50.810;4.394;2022-09-09T14:06:03;22.80;99.90
23540;DHT22;11947;50.810;4.394;2022-09-09T14:08:29;22.60;99.90
23540;DHT22;11947;50.810;4.394;2022-09-09T14:11:05;22.50;99.90
23540;DHT22;11947;50.810;4.394;2022-09-09T14:13:31;22.40;99.90
23540;DHT22;11947;50.810;4.394;2022-09-09T14:15:57;22.50;99.90
23540;DHT22;11947;50.810;4.394;2022-09-09T14:18:22;22.70;99.90
23540;DHT22;11947;50.810;4.394;2022-09-09T14:20:48;22.60;99.90
23540;DHT22;11947;50.810;4.394;2022-09-09T14:23:15;22.30;99.90
23540;DHT22;11947;50.810;4.394;2022-09-09T14:25:42;22.00;99.90
23540;DHT22;11947;50.810;4.394;2022-09-09T14:28:09;21.90;99.90
23540;DHT22;11947;50.810;4.394;2022-09-09T14:30:43;21.60;99.90
23540;DHT22;11947;50.810;4.394;2022-09-09T14:33:13;21.50;99.90
23540;DHT22;11947;50.810;4.394;2022-09-09T14:35:39;21.70;99.90
23540;DHT22;11947;50.810;4.394;2022-09-09T14:38:07;21.90;99.90
23540;DHT22;11947;50.810;4.394;2022-09-09T14:40:34;22.70;99.90
23540;DHT22;11947;50.810;4.394;2022-09-09T14:42:59;23.00;99.90
23540;DHT22;11947;50.810;4.394;2022-09-09T14:45:25;22.80;99.90
23540;DHT22;11947;50.810;4.394;2022-09-09T14:47:51;22.70;99.90
23540;DHT22;11947;50.810;4.394;2022-09-09T14:50:17;22.30;99.90
23540;DHT22;11947;50.810;4.394;2022-09-09T14:52:43;22.30;99.90
23540;DHT22;11947;50.810;4.394;2022-09-09T14:55:09;22.90;99.90
23540;DHT22;11947;50.810;4.394;2022-09-09T14:57:35;23.80;99.90
23540;DHT22;11947;50.810;4.394;2022-09-09T15:00:02;23.90;99.90
23540;DHT22;11947;50.810;4.394;2022-09-09T15:02:28;23.70;99.90
23540;DHT22;11947;50.810;4.394;2022-09-09T15:04:55;23.50;99.90
23540;DHT22;11947;50.810;4.394;2022-09-09T15:07:22;23.30;99.90
23540;DHT22;11947;50.810;4.394;2022-09-09T15:09:48;22.90;99.90
23540;DHT22;11947;50.810;4.394;2022-09-09T15:12:14;22.50;99.90
23540;DHT22;11947;50.810;4.394;2022-09-09T15:14:39;22.40;99.90
23540;DHT22;11947;50.810;4.394;2022-09-09T15:17:05;22.40;99.90
23540;DHT22;11947;50.810;4.394;2022-09-09T15:19:30;22.50;99.90
23540;DHT22;11947;50.810;4.394;2022-09-09T15:21:57;22.70;99.90
23540;DHT22;11947;50.810;4.394;2022-09-09T15:24:25;22.50;99.90
23540;DHT22;11947;50.810;4.394;2022-09-09T15:26:51;22.60;99.90
23540;DHT22;11947;50.810;4.394;2022-09-09T15:29:17;22.30;99.90
23540;DHT22;11947;50.810;4.394;2022-09-09T15:31:44;22.10;99.90
23540;DHT22;11947;50.810;4.394;2022-09-09T15:34:09;22.00;99.90
23540;DHT22;11947;50.810;4.394;2022-09-09T15:36:36;21.80;99.90
23540;DHT22;11947;50.810;4.394;2022-09-09T15:39:02;21.50;99.90
23540;DHT22;11947;50.810;4.394;2022-09-09T15:41:31;21.30;99.90
23540;DHT22;11947;50.810;4.394;2022-09-09T15:43:57;21.20;99.90
23540;DHT22;11947;50.810;4.394;2022-09-09T15:46:32;21.00;99.90
23540;DHT22;11947;50.810;4.394;2022-09-09T15:49:02;20.90;99.90
23540;DHT22;11947;50.810;4.394;2022-09-09T15:51:28;21.00;99.90
23540;DHT22;11947;50.810;4.394;2022-09-09T15:53:55;21.00;99.90
23540;DHT22;11947;50.810;4.394;2022-09-09T15:56:21;20.80;99.90
23540;DHT22;11947;50.810;4.394;2022-09-09T15:58:47;20.80;99.90
23540;DHT22;11947;50.810;4.394;2022-09-09T16:01:12;20.90;99.90
23540;DHT22;11947;50.810;4.394;2022-09-09T16:03:39;20.90;99.90
23540;DHT22;11947;50.810;4.394;2022-09-09T16:06:05;20.80;99.90
23540;DHT22;11947;50.810;4.394;2022-09-09T16:08:32;20.90;99.90
23540;DHT22;11947;50.810;4.394;2022-09-09T16:11:08;20.80;99.90
23540;DHT22;11947;50.810;4.394;2022-09-09T16:13:41;20.70;99.90
23540;DHT22;11947;50.810;4.394;2022-09-09T16:16:07;20.50;99.90
23540;DHT22;11947;50.810;4.394;2022-09-09T16:18:38;20.50;99.90
23540;DHT22;11947;50.810;4.394;2022-09-09T16:21:04;20.30;99.90
23540;DHT22;11947;50.810;4.394;2022-09-09T16:23:31;20.20;99.90
23540;DHT22;11947;50.810;4.394;2022-09-09T16:25:57;20.10;99.90
23540;DHT22;11947;50.810;4.394;2022-09-09T16:28:23;20.00;99.90
23540;DHT22;11947;50.810;4.394;2022-09-09T16:30:49;19.70;99.90
23540;DHT22;11947;50.810;4.394;2022-09-09T16:46:18;18.10;99.90
23540;DHT22;11947;50.810;4.394;2022-09-09T16:48:45;17.80;99.90
23540;DHT22;11947;50.810;4.394;2022-09-09T16:51:15;17.60;99.90
23540;DHT22;11947;50.810;4.394;2022-09-09T16:53:41;17.60;99.90
23540;DHT22;11947;50.810;4.394;2022-09-09T16:56:11;17.80;99.90
23540;DHT22;11947;50.810;4.394;2022-09-09T16:58:40;17.80;99.90
23540;DHT22;11947;50.810;4.394;2022-09-09T17:01:05;17.70;99.90
23540;DHT22;11947;50.810;4.394;2022-09-09T17:03:31;17.60;99.90
23540;DHT22;11947;50.810;4.394;2022-09-09T17:05:58;17.50;99.90
23540;DHT22;11947;50.810;4.394;2022-09-09T17:08:28;17.50;99.90
23540;DHT22;11947;50.810;4.394;2022-09-09T17:10:53;17.50;99.90
23540;DHT22;11947;50.810;4.394;2022-09-09T17:13:19;17.50;99.90
23540;DHT22;11947;50.810;4.394;2022-09-09T17:15:44;17.50;99.90
23540;DHT22;11947;50.810;4.394;2022-09-09T17:18:10;17.60;99.90
23540;DHT22;11947;50.810;4.394;2022-09-09T17:20:37;17.70;99.90
23540;DHT22;11947;50.810;4.394;2022-09-09T17:23:08;17.60;99.90
23540;DHT22;11947;50.810;4.394;2022-09-09T17:25:34;17.50;99.90
23540;DHT22;11947;50.810;4.394;2022-09-09T17:28:00;17.40;99.90
23540;DHT22;11947;50.810;4.394;2022-09-09T17:30:29;17.20;99.90
23540;DHT22;11947;50.810;4.394;2022-09-09T17:32:56;17.20;99.90
23540;DHT22;11947;50.810;4.394;2022-09-09T17:35:25;17.20;99.90
23540;DHT22;11947;50.810;4.394;2022-09-09T17:37:52;17.10;99.90
23540;DHT22;11947;50.810;4.394;2022-09-09T17:40:17;17.00;99.90
23540;DHT22;11947;50.810;4.394;2022-09-09T17:42:43;17.00;99.90
23540;DHT22;11947;50.810;4.394;2022-09-09T17:45:09;16.90;99.90
23540;DHT22;11947;50.810;4.394;2022-09-09T17:47:38;16.90;99.90
23540;DHT22;11947;50.810;4.394;2022-09-09T17:50:03;17.00;99.90
23540;DHT22;11947;50.810;4.394;2022-09-09T17:52:29;16.90;99.90
23540;DHT22;11947;50.810;4.394;2022-09-09T17:54:59;16.80;99.90
23540;DHT22;11947;50.810;4.394;2022-09-09T17:57:25;16.90;99.90
23540;DHT22;11947;50.810;4.394;2022-09-09T17:59:51;16.90;99.90
23540;DHT22;11947;50.810;4.394;2022-09-09T18:02:16;16.80;99.90
23540;DHT22;11947;50.810;4.394;2022-09-09T18:04:42;16.80;99.90
23540;DHT22;11947;50.810;4.394;2022-09-09T18:07:07;16.80;99.90
23540;DHT22;11947;50.810;4.394;2022-09-09T18:09:33;16.70;99.90
23540;DHT22;11947;50.810;4.394;2022-09-09T18:11:59;16.60;99.90
23540;DHT22;11947;50.810;4.394;2022-09-09T18:17:44;16.60;99.90
23540;DHT22;11947;50.810;4.394;2022-09-09T18:20:09;16.60;99.90